createdAt,value
2022-11-30T00:03:09.204Z,81.47
2022-11-30T00:07:10.997Z,80.60
2022-11-30T00:11:15.363Z,80.15
2022-11-30T00:15:17.628Z,80.30
2022-11-30T00:19:19.364Z,80.25
2022-11-30T00:23:21.224Z,80.16
2022-11-30T00:27:22.857Z,79.82
2022-11-30T00:31:25.244Z,79.82
2022-11-30T00:35:27.090Z,80.05
2022-11-30T00:39:32.401Z,80.40
2022-11-30T00:43:37.331Z,80.06
2022-11-30T00:47:39.020Z,80.07
2022-11-30T00:51:40.745Z,80.26
2022-11-30T00:55:43.961Z,80.15
2022-11-30T00:59:45.691Z,79.90
2022-11-30T01:03:48.088Z,79.83
2022-11-30T01:07:49.804Z,79.81
2022-11-30T01:11:51.566Z,79.86
2022-11-30T01:15:53.253Z,79.70
2022-11-30T01:19:54.976Z,79.62
2022-11-30T01:23:56.717Z,79.85
2022-11-30T01:27:58.371Z,79.42
2022-11-30T01:32:00.100Z,79.23
2022-11-30T01:36:05.808Z,79.36
2022-11-30T01:40:08.379Z,79.78
2022-11-30T01:44:19.723Z,79.71
2022-11-30T01:48:21.634Z,79.78
2022-11-30T01:52:27.783Z,79.71
2022-11-30T01:56:29.689Z,79.51
2022-11-30T02:00:31.613Z,79.51
2022-11-30T02:04:35.156Z,79.36
2022-11-30T02:08:36.933Z,80.23
2022-11-30T02:12:44.753Z,79.69
2022-11-30T02:16:51.989Z,79.72
2022-11-30T02:21:01.591Z,79.62
2022-11-30T02:25:03.478Z,79.96
2022-11-30T02:29:26.029Z,79.72
2022-11-30T02:33:30.191Z,79.67
2022-11-30T02:37:32.200Z,79.60
2022-11-30T02:41:40.939Z,79.74
2022-11-30T02:45:56.441Z,79.86
2022-11-30T02:50:05.127Z,79.88
2022-11-30T02:54:07.198Z,79.71
2022-11-30T02:58:08.874Z,79.69
2022-11-30T03:02:10.619Z,79.60
2022-11-30T03:06:12.166Z,79.83
2022-11-30T03:10:13.901Z,79.45
2022-11-30T03:14:15.628Z,79.75
2022-11-30T03:18:17.308Z,79.60
2022-11-30T03:22:19.083Z,79.55
2022-11-30T03:26:20.953Z,79.28
2022-11-30T03:30:22.663Z,79.40
2022-11-30T03:34:26.629Z,79.33
2022-11-30T03:38:28.675Z,79.51
2022-11-30T03:42:30.406Z,79.33
2022-11-30T03:46:32.080Z,79.71
2022-11-30T03:50:33.658Z,79.69
2022-11-30T03:54:35.357Z,79.31
2022-11-30T03:58:36.938Z,79.15
2022-11-30T04:02:44.320Z,79.17
2022-11-30T04:06:46.552Z,79.34
2022-11-30T04:10:48.207Z,79.59
2022-11-30T04:14:49.900Z,79.46
2022-11-30T04:18:51.690Z,79.26
2022-11-30T04:22:53.414Z,79.53
2022-11-30T04:26:54.954Z,79.46
2022-11-30T04:30:57.347Z,79.57
2022-11-30T04:34:59.128Z,79.68
2022-11-30T04:39:00.884Z,79.74
2022-11-30T04:43:02.631Z,79.88
2022-11-30T04:47:04.336Z,79.78
2022-11-30T04:51:08.109Z,79.58
2022-11-30T04:55:09.833Z,79.72
2022-11-30T04:59:11.532Z,79.43
2022-11-30T05:03:13.200Z,79.40
2022-11-30T05:07:14.812Z,79.70
2022-11-30T05:11:16.524Z,79.54
2022-11-30T05:15:18.237Z,79.79
2022-11-30T05:19:19.944Z,79.58
2022-11-30T05:23:21.773Z,79.41
2022-11-30T05:27:23.432Z,79.47
2022-11-30T05:31:24.984Z,79.55
2022-11-30T05:35:26.774Z,79.71
2022-11-30T05:39:28.415Z,79.41
2022-11-30T05:43:30.304Z,79.54
2022-11-30T05:47:31.956Z,79.53
2022-11-30T05:51:33.639Z,79.54
2022-11-30T05:55:36.281Z,79.32
2022-11-30T05:59:39.195Z,79.62
2022-11-30T06:03:40.974Z,79.30
2022-11-30T06:07:42.652Z,79.17
2022-11-30T06:11:44.301Z,79.08
2022-11-30T06:15:45.921Z,79.31
2022-11-30T06:19:47.640Z,79.26
2022-11-30T06:23:49.358Z,79.05
2022-11-30T06:27:51.542Z,79.05
2022-11-30T06:31:54.102Z,79.26
2022-11-30T06:35:55.825Z,78.96
2022-11-30T06:40:06.368Z,79.35
2022-11-30T06:44:09.849Z,79.36
2022-11-30T06:48:12.071Z,79.36
2022-11-30T06:52:13.707Z,79.41
2022-11-30T06:56:15.311Z,79.14
2022-11-30T07:00:21.438Z,79.30
2022-11-30T07:04:23.144Z,78.79
2022-11-30T07:08:24.889Z,78.81
2022-11-30T07:12:26.617Z,78.71
2022-11-30T07:16:28.593Z,78.73
2022-11-30T07:20:30.702Z,78.87
2022-11-30T07:24:51.024Z,78.90
2022-11-30T07:28:55.485Z,78.96
2022-11-30T07:32:57.352Z,78.59
2022-11-30T07:36:59.038Z,78.53
2022-11-30T07:41:00.640Z,78.65
2022-11-30T07:45:02.246Z,79.02
2022-11-30T07:49:07.935Z,78.70
2022-11-30T07:53:09.797Z,78.34
2022-11-30T07:57:11.506Z,78.22
2022-11-30T08:01:17.640Z,78.20
2022-11-30T08:05:19.525Z,78.05
2022-11-30T08:09:21.516Z,77.80
2022-11-30T08:13:23.206Z,78.05
2022-11-30T08:17:24.903Z,78.22
2022-11-30T08:21:26.696Z,78.22
2022-11-30T08:25:29.203Z,78.06
2022-11-30T08:29:30.935Z,77.99
2022-11-30T08:33:33.738Z,78.06
2022-11-30T08:37:38.888Z,77.83
2022-11-30T08:41:40.698Z,77.62
2022-11-30T08:45:42.429Z,77.13
2022-11-30T08:49:44.167Z,76.57
2022-11-30T08:53:47.248Z,75.79
2022-11-30T08:57:49.057Z,74.57
2022-11-30T09:01:50.702Z,73.95
2022-11-30T09:05:52.371Z,73.29
2022-11-30T09:09:53.995Z,71.17
2022-11-30T09:13:57.466Z,70.95
2022-11-30T09:17:59.168Z,70.42
2022-11-30T09:22:00.934Z,67.58
2022-11-30T09:26:04.878Z,67.28
2022-11-30T09:30:07.320Z,65.80
2022-11-30T09:34:11.121Z,65.58
2022-11-30T09:38:12.755Z,63.18
2022-11-30T09:42:39.934Z,60.57
2022-11-30T09:46:46.562Z,58.26
2022-11-30T09:50:48.308Z,58.83
2022-11-30T09:54:50.219Z,59.43
2022-11-30T09:58:58.256Z,57.32
2022-11-30T10:03:04.184Z,54.19
2022-11-30T10:07:09.114Z,55.50
2022-11-30T10:11:23.030Z,53.90
2022-11-30T10:15:27.500Z,51.91
2022-11-30T10:19:41.361Z,51.45
2022-11-30T10:24:10.686Z,50.10
2022-11-30T10:28:45.750Z,51.42
2022-11-30T10:32:40.589Z,50.24
2022-11-30T10:36:51.787Z,50.67
2022-11-30T10:41:01.373Z,53.05
2022-11-30T10:45:20.267Z,50.52
2022-11-30T10:49:23.613Z,50.72
2022-11-30T10:53:25.365Z,50.40
2022-11-30T10:57:32.170Z,50.86
2022-11-30T11:01:39.489Z,48.74
2022-11-30T11:05:41.218Z,49.30
2022-11-30T11:09:50.665Z,46.94
2022-11-30T11:13:52.549Z,45.66
2022-11-30T11:18:12.247Z,44.13
2022-11-30T11:22:22.866Z,43.99
2022-11-30T11:26:28.131Z,44.21
2022-11-30T11:30:31.277Z,44.32
2022-11-30T11:34:34.496Z,41.67
2022-11-30T11:38:44.932Z,39.20
2022-11-30T11:42:48.748Z,38.38
2022-11-30T11:46:59.609Z,37.97
2022-11-30T11:51:08.114Z,38.01
2022-11-30T11:55:16.529Z,36.19
2022-11-30T11:59:28.017Z,35.99
2022-11-30T12:03:45.783Z,35.33
2022-11-30T12:08:06.731Z,33.15
2022-11-30T12:12:12.720Z,34.65
2022-11-30T12:16:37.318Z,35.95
2022-11-30T12:21:07.982Z,36.61
2022-11-30T12:25:30.414Z,37.83
2022-11-30T12:29:48.859Z,38.46
2022-11-30T12:34:24.778Z,39.12
2022-11-30T12:38:39.752Z,40.31
2022-11-30T12:42:47.727Z,41.08
2022-11-30T12:47:17.760Z,41.50
2022-11-30T12:51:39.689Z,41.65
2022-11-30T12:55:44.293Z,41.99
2022-11-30T12:59:57.714Z,42.48
2022-11-30T13:04:41.186Z,42.98
2022-11-30T13:08:45.022Z,43.28
2022-11-30T13:12:50.276Z,43.62
2022-11-30T13:17:00.423Z,44.22
2022-11-30T13:21:07.414Z,44.71
2022-11-30T13:26:06.387Z,44.58
2022-11-30T13:30:13.532Z,44.55
2022-11-30T13:34:24.310Z,44.87
2022-11-30T13:38:36.900Z,45.39
2022-11-30T13:42:48.868Z,45.40
2022-11-30T13:46:53.578Z,45.81
2022-11-30T13:50:55.307Z,45.87
2022-11-30T13:54:58.385Z,45.97
2022-11-30T13:59:44.935Z,46.16
2022-11-30T14:04:15.894Z,46.28
2022-11-30T14:08:23.301Z,46.40
2022-11-30T14:12:31.228Z,47.63
2022-11-30T14:16:33.024Z,48.94
2022-11-30T14:20:57.492Z,49.92
2022-11-30T14:24:59.449Z,50.87
2022-11-30T14:29:09.368Z,51.36
2022-11-30T14:33:38.112Z,51.86
2022-11-30T14:37:59.648Z,52.56
2022-11-30T14:42:02.480Z,53.28
2022-11-30T14:46:09.192Z,54.27
2022-11-30T14:50:22.979Z,53.71
2022-11-30T14:54:30.639Z,54.86
2022-11-30T14:58:53.494Z,54.98
2022-11-30T15:02:55.389Z,55.63
2022-11-30T15:06:57.671Z,55.46
2022-11-30T15:11:04.221Z,55.85
2022-11-30T15:15:19.609Z,55.89
2022-11-30T15:19:26.738Z,56.33
2022-11-30T15:23:28.561Z,56.41
2022-11-30T15:27:30.663Z,57.09
2022-11-30T15:31:43.873Z,57.44
2022-11-30T15:36:12.412Z,57.94
2022-11-30T15:40:14.132Z,57.64
2022-11-30T15:44:39.445Z,57.70
2022-11-30T15:48:41.172Z,58.34
2022-11-30T15:52:44.536Z,58.63
2022-11-30T15:56:56.380Z,59.67
2022-11-30T16:01:20.630Z,60.30
2022-11-30T16:05:24.622Z,60.17
2022-11-30T16:09:33.394Z,60.04
2022-11-30T16:13:35.030Z,60.39
2022-11-30T16:17:36.687Z,60.54
2022-11-30T16:21:38.687Z,60.97
2022-11-30T16:25:41.207Z,61.62
2022-11-30T16:29:46.725Z,61.90
2022-11-30T16:33:51.296Z,62.16
2022-11-30T16:37:53.040Z,62.32
2022-11-30T16:41:54.723Z,62.28
2022-11-30T16:45:56.417Z,61.21
2022-11-30T16:49:59.654Z,61.53
2022-11-30T16:54:01.462Z,61.98
2022-11-30T16:58:03.391Z,62.55
2022-11-30T17:02:16.015Z,62.70
2022-11-30T17:06:21.756Z,62.58
2022-11-30T17:10:23.590Z,62.49
2022-11-30T17:14:25.265Z,63.22
2022-11-30T17:18:26.957Z,63.86
2022-11-30T17:22:28.649Z,63.59
2022-11-30T17:26:30.564Z,63.68
2022-11-30T17:30:32.252Z,64.12
2022-11-30T17:34:34.009Z,63.95
2022-11-30T17:38:36.633Z,63.53
2022-11-30T17:42:38.441Z,64.49
2022-11-30T17:46:44.079Z,65.21
2022-11-30T17:50:54.806Z,65.07
2022-11-30T17:54:56.666Z,65.15
2022-11-30T17:58:59.682Z,65.84
2022-11-30T18:03:01.608Z,65.67
2022-11-30T18:07:03.363Z,65.18
2022-11-30T18:11:16.013Z,65.02
2022-11-30T18:15:17.749Z,65.46
2022-11-30T18:19:19.471Z,65.01
2022-11-30T18:23:21.131Z,64.53
2022-11-30T18:27:22.856Z,65.21
2022-11-30T18:31:25.114Z,65.59
2022-11-30T18:35:26.876Z,65.50
2022-11-30T18:39:28.542Z,66.03
2022-11-30T18:43:33.933Z,66.25
2022-11-30T18:47:35.760Z,66.10
2022-11-30T18:51:37.455Z,66.18
2022-11-30T18:55:39.106Z,65.78
2022-11-30T18:59:40.852Z,65.75
2022-11-30T19:03:43.161Z,66.05
2022-11-30T19:07:44.865Z,66.30
2022-11-30T19:11:46.722Z,66.58
2022-11-30T19:15:48.435Z,66.99
2022-11-30T19:19:50.157Z,67.32
2022-11-30T19:23:51.898Z,67.23
2022-11-30T19:27:53.520Z,67.68
2022-11-30T19:31:55.185Z,67.72
2022-11-30T19:36:02.040Z,67.79
2022-11-30T19:40:04.810Z,67.57
2022-11-30T19:44:06.595Z,67.89
2022-11-30T19:48:08.387Z,68.32
2022-11-30T19:52:10.125Z,68.56
2022-11-30T19:56:14.570Z,68.34
2022-11-30T20:00:16.622Z,68.39
2022-11-30T20:04:18.340Z,68.29
2022-11-30T20:08:20.727Z,68.31
2022-11-30T20:12:22.389Z,68.26
2022-11-30T20:16:24.143Z,68.55
2022-11-30T20:20:25.860Z,68.33
2022-11-30T20:24:27.635Z,68.29
2022-11-30T20:28:29.340Z,68.52
2022-11-30T20:32:31.032Z,68.78
2022-11-30T20:36:32.779Z,69.07
2022-11-30T20:40:37.723Z,69.12
2022-11-30T20:44:39.755Z,69.76
2022-11-30T20:48:41.471Z,69.34
2022-11-30T20:52:43.191Z,69.25
2022-11-30T20:56:47.726Z,69.60
2022-11-30T21:00:52.537Z,69.81
2022-11-30T21:04:54.365Z,69.47
2022-11-30T21:08:56.226Z,69.79
2022-11-30T21:12:58.299Z,69.60
2022-11-30T21:17:00.001Z,69.53
2022-11-30T21:21:03.693Z,69.33
2022-11-30T21:25:07.344Z,69.32
2022-11-30T21:29:14.566Z,68.97
2022-11-30T21:33:16.233Z,68.93
2022-11-30T21:37:18.425Z,68.75
2022-11-30T21:41:20.217Z,68.72
2022-11-30T21:45:21.820Z,69.27
2022-11-30T21:49:23.841Z,69.25
2022-11-30T21:53:26.091Z,69.35
2022-11-30T21:57:27.811Z,69.67
2022-11-30T22:01:32.244Z,69.88
2022-11-30T22:05:33.952Z,69.77
2022-11-30T22:09:35.932Z,69.80
2022-11-30T22:13:38.627Z,69.77
2022-11-30T22:17:40.374Z,70.40
2022-11-30T22:21:49.964Z,70.36
2022-11-30T22:25:52.688Z,70.29
2022-11-30T22:29:54.695Z,70.26
2022-11-30T22:33:56.852Z,70.21
2022-11-30T22:37:59.010Z,70.12
2022-11-30T22:42:00.814Z,70.28
2022-11-30T22:46:07.526Z,70.48
2022-11-30T22:50:09.695Z,70.67
2022-11-30T22:54:20.693Z,70.99
2022-11-30T22:58:22.337Z,71.29
2022-11-30T23:02:24.106Z,71.28
2022-11-30T23:06:25.868Z,71.41
2022-11-30T23:10:27.601Z,71.14
2022-11-30T23:14:29.303Z,71.50
2022-11-30T23:18:41.903Z,71.38
2022-11-30T23:22:43.562Z,70.93
2022-11-30T23:26:45.206Z,70.81
2022-11-30T23:30:47.065Z,70.78
2022-11-30T23:34:50.748Z,70.77
2022-11-30T23:38:58.074Z,70.81
2022-11-30T23:42:59.875Z,70.95
2022-11-30T23:47:01.632Z,70.96
2022-11-30T23:51:03.770Z,71.05
2022-11-30T23:55:06.158Z,71.35
2022-11-30T23:59:07.843Z,71.03
